sensor_id;sensor_type;location;lat;lon;timestamp;P1;durP1;ratioP1;P2;durP2;ratioP2
50319;SDS011;36226;53.464;9.852;2023-03-14T00:02:00;4.05;;;1.95;;
50319;SDS011;36226;53.464;9.852;2023-03-14T00:04:25;5.63;;;2.00;;
50319;SDS011;36226;53.464;9.852;2023-03-14T00:06:51;4.18;;;1.80;;
50319;SDS011;36226;53.464;9.852;2023-03-14T00:09:16;6.28;;;2.40;;
50319;SDS011;36226;53.464;9.852;2023-03-14T00:11:42;5.03;;;2.20;;
50319;SDS011;36226;53.464;9.852;2023-03-14T00:14:07;4.85;;;2.22;;
50319;SDS011;36226;53.464;9.852;2023-03-14T00:16:32;7.25;;;2.08;;
50319;SDS011;36226;53.464;9.852;2023-03-14T00:18:58;4.43;;;2.20;;
50319;SDS011;36226;53.464;9.852;2023-03-14T00:21:24;8.52;;;2.20;;
50319;SDS011;36226;53.464;9.852;2023-03-14T00:23:50;6.68;;;2.20;;
50319;SDS011;36226;53.464;9.852;2023-03-14T00:26:16;4.97;;;1.98;;
50319;SDS011;36226;53.464;9.852;2023-03-14T00:28:43;3.95;;;2.05;;
50319;SDS011;36226;53.464;9.852;2023-03-14T00:31:09;7.63;;;1.92;;
50319;SDS011;36226;53.464;9.852;2023-03-14T00:33:35;7.45;;;2.15;;
50319;SDS011;36226;53.464;9.852;2023-03-14T00:36:05;10.63;;;2.10;;
50319;SDS011;36226;53.464;9.852;2023-03-14T00:38:34;7.38;;;1.95;;
50319;SDS011;36226;53.464;9.852;2023-03-14T00:41:01;5.25;;;2.28;;
50319;SDS011;36226;53.464;9.852;2023-03-14T00:43:28;7.03;;;2.10;;
50319;SDS011;36226;53.464;9.852;2023-03-14T00:45:53;6.13;;;1.70;;
50319;SDS011;36226;53.464;9.852;2023-03-14T00:48:19;8.10;;;2.20;;
50319;SDS011;36226;53.464;9.852;2023-03-14T00:50:45;6.10;;;2.20;;
50319;SDS011;36226;53.464;9.852;2023-03-14T00:53:10;6.47;;;2.22;;
50319;SDS011;36226;53.464;9.852;2023-03-14T00:55:37;8.50;;;2.25;;
50319;SDS011;36226;53.464;9.852;2023-03-14T00:58:03;5.25;;;1.88;;
50319;SDS011;36226;53.464;9.852;2023-03-14T01:00:28;9.45;;;2.28;;
50319;SDS011;36226;53.464;9.852;2023-03-14T01:02:54;5.22;;;2.10;;
50319;SDS011;36226;53.464;9.852;2023-03-14T01:05:22;8.32;;;2.40;;
50319;SDS011;36226;53.464;9.852;2023-03-14T01:07:48;3.67;;;1.83;;
50319;SDS011;36226;53.464;9.852;2023-03-14T01:10:13;4.00;;;3.15;;
50319;SDS011;36226;53.464;9.852;2023-03-14T01:12:38;5.78;;;2.17;;
50319;SDS011;36226;53.464;9.852;2023-03-14T01:15:04;8.50;;;2.60;;
50319;SDS011;36226;53.464;9.852;2023-03-14T01:17:30;5.40;;;2.10;;
50319;SDS011;36226;53.464;9.852;2023-03-14T01:19:55;5.40;;;1.95;;
50319;SDS011;36226;53.464;9.852;2023-03-14T01:22:20;9.80;;;2.90;;
50319;SDS011;36226;53.464;9.852;2023-03-14T01:24:46;7.78;;;2.00;;
50319;SDS011;36226;53.464;9.852;2023-03-14T01:27:12;11.35;;;2.67;;
50319;SDS011;36226;53.464;9.852;2023-03-14T01:29:37;6.32;;;2.30;;
50319;SDS011;36226;53.464;9.852;2023-03-14T01:32:03;8.93;;;2.17;;
50319;SDS011;36226;53.464;9.852;2023-03-14T01:34:28;8.18;;;2.63;;
50319;SDS011;36226;53.464;9.852;2023-03-14T01:36:53;6.10;;;2.08;;
50319;SDS011;36226;53.464;9.852;2023-03-14T01:39:19;7.75;;;2.28;;
50319;SDS011;36226;53.464;9.852;2023-03-14T01:41:44;9.60;;;2.10;;
50319;SDS011;36226;53.464;9.852;2023-03-14T01:44:10;7.07;;;2.13;;
50319;SDS011;36226;53.464;9.852;2023-03-14T01:49:25;9.48;;;2.45;;
50319;SDS011;36226;53.464;9.852;2023-03-14T01:54:41;8.63;;;2.58;;
50319;SDS011;36226;53.464;9.852;2023-03-14T01:57:10;6.07;;;2.30;;
50319;SDS011;36226;53.464;9.852;2023-03-14T01:59:38;7.25;;;2.05;;
50319;SDS011;36226;53.464;9.852;2023-03-14T02:02:06;6.78;;;2.45;;
50319;SDS011;36226;53.464;9.852;2023-03-14T02:04:37;5.45;;;2.20;;
50319;SDS011;36226;53.464;9.852;2023-03-14T02:07:12;9.10;;;2.90;;
50319;SDS011;36226;53.464;9.852;2023-03-14T02:09:41;5.13;;;2.40;;
50319;SDS011;36226;53.464;9.852;2023-03-14T02:12:07;7.82;;;2.17;;
50319;SDS011;36226;53.464;9.852;2023-03-14T02:14:34;8.85;;;2.13;;
50319;SDS011;36226;53.464;9.852;2023-03-14T02:17:01;7.30;;;2.17;;
50319;SDS011;36226;53.464;9.852;2023-03-14T02:19:44;6.38;;;2.10;;
50319;SDS011;36226;53.464;9.852;2023-03-14T02:22:14;9.23;;;2.33;;
50319;SDS011;36226;53.464;9.852;2023-03-14T02:27:21;7.70;;;2.42;;
50319;SDS011;36226;53.464;9.852;2023-03-14T02:32:15;11.20;;;3.22;;
50319;SDS011;36226;53.464;9.852;2023-03-14T02:34:42;7.32;;;2.53;;
50319;SDS011;36226;53.464;9.852;2023-03-14T02:37:08;5.72;;;2.75;;
50319;SDS011;36226;53.464;9.852;2023-03-14T02:39:35;8.95;;;2.72;;
50319;SDS011;36226;53.464;9.852;2023-03-14T02:42:03;5.20;;;2.75;;
50319;SDS011;36226;53.464;9.852;2023-03-14T02:44:28;6.03;;;2.40;;
50319;SDS011;36226;53.464;9.852;2023-03-14T02:46:54;6.03;;;2.33;;
50319;SDS011;36226;53.464;9.852;2023-03-14T02:49:19;8.52;;;2.63;;
50319;SDS011;36226;53.464;9.852;2023-03-14T02:51:45;9.07;;;2.60;;
50319;SDS011;36226;53.464;9.852;2023-03-14T02:54:10;8.52;;;2.70;;
50319;SDS011;36226;53.464;9.852;2023-03-14T02:56:36;8.65;;;3.10;;
50319;SDS011;36226;53.464;9.852;2023-03-14T02:59:05;6.72;;;2.38;;
50319;SDS011;36226;53.464;9.852;2023-03-14T03:01:30;4.80;;;2.45;;
50319;SDS011;36226;53.464;9.852;2023-03-14T03:03:56;5.45;;;2.40;;
50319;SDS011;36226;53.464;9.852;2023-03-14T03:06:21;7.32;;;2.83;;
50319;SDS011;36226;53.464;9.852;2023-03-14T03:08:46;5.88;;;2.58;;
50319;SDS011;36226;53.464;9.852;2023-03-14T03:11:12;4.72;;;2.38;;
50319;SDS011;36226;53.464;9.852;2023-03-14T03:13:37;7.05;;;2.20;;
50319;SDS011;36226;53.464;9.852;2023-03-14T03:16:03;8.75;;;2.28;;
50319;SDS011;36226;53.464;9.852;2023-03-14T03:18:28;6.53;;;2.08;;
50319;SDS011;36226;53.464;9.852;2023-03-14T03:20:54;7.35;;;2.40;;
50319;SDS011;36226;53.464;9.852;2023-03-14T03:23:19;6.10;;;2.25;;
50319;SDS011;36226;53.464;9.852;2023-03-14T03:25:48;6.90;;;2.20;;
50319;SDS011;36226;53.464;9.852;2023-03-14T03:28:14;5.45;;;2.10;;
50319;SDS011;36226;53.464;9.852;2023-03-14T03:30:40;5.40;;;1.90;;
50319;SDS011;36226;53.464;9.852;2023-03-14T03:33:06;6.45;;;2.22;;
50319;SDS011;36226;53.464;9.852;2023-03-14T03:35:32;5.90;;;2.13;;
50319;SDS011;36226;53.464;9.852;2023-03-14T03:37:57;7.43;;;2.08;;
50319;SDS011;36226;53.464;9.852;2023-03-14T03:40:23;11.68;;;2.60;;
50319;SDS011;36226;53.464;9.852;2023-03-14T03:42:48;4.22;;;2.05;;
50319;SDS011;36226;53.464;9.852;2023-03-14T03:45:13;5.60;;;2.28;;
50319;SDS011;36226;53.464;9.852;2023-03-14T03:47:39;7.47;;;2.05;;
50319;SDS011;36226;53.464;9.852;2023-03-14T03:50:04;8.40;;;2.28;;
50319;SDS011;36226;53.464;9.852;2023-03-14T03:52:30;6.60;;;2.13;;
50319;SDS011;36226;53.464;9.852;2023-03-14T03:54:55;8.10;;;2.50;;
50319;SDS011;36226;53.464;9.852;2023-03-14T03:57:21;7.30;;;2.65;;
50319;SDS011;36226;53.464;9.852;2023-03-14T03:59:46;8.68;;;2.20;;
50319;SDS011;36226;53.464;9.852;2023-03-14T04:02:11;4.88;;;2.40;;
50319;SDS011;36226;53.464;9.852;2023-03-14T04:04:37;5.93;;;2.00;;
50319;SDS011;36226;53.464;9.852;2023-03-14T04:07:03;8.18;;;2.38;;
50319;SDS011;36226;53.464;9.852;2023-03-14T04:09:29;7.05;;;2.35;;
50319;SDS011;36226;53.464;9.852;2023-03-14T04:11:55;5.97;;;2.30;;
50319;SDS011;36226;53.464;9.852;2023-03-14T04:14:20;8.55;;;2.40;;
50319;SDS011;36226;53.464;9.852;2023-03-14T04:16:46;8.30;;;2.65;;
50319;SDS011;36226;53.464;9.852;2023-03-14T04:19:11;6.03;;;2.47;;
50319;SDS011;36226;53.464;9.852;2023-03-14T04:21:36;6.55;;;2.50;;
50319;SDS011;36226;53.464;9.852;2023-03-14T04:24:05;6.13;;;2.47;;
50319;SDS011;36226;53.464;9.852;2023-03-14T04:26:30;7.63;;;2.58;;
50319;SDS011;36226;53.464;9.852;2023-03-14T04:28:56;6.38;;;2.60;;
50319;SDS011;36226;53.464;9.852;2023-03-14T04:31:21;7.45;;;2.15;;
50319;SDS011;36226;53.464;9.852;2023-03-14T04:33:47;9.57;;;2.85;;
50319;SDS011;36226;53.464;9.852;2023-03-14T04:36:12;3.80;;;2.45;;
50319;SDS011;36226;53.464;9.852;2023-03-14T04:38:41;9.82;;;2.88;;
50319;SDS011;36226;53.464;9.852;2023-03-14T04:41:06;5.32;;;2.47;;
50319;SDS011;36226;53.464;9.852;2023-03-14T04:43:32;7.85;;;2.92;;
50319;SDS011;36226;53.464;9.852;2023-03-14T04:45:57;8.05;;;2.50;;
50319;SDS011;36226;53.464;9.852;2023-03-14T04:48:23;7.05;;;2.78;;
50319;SDS011;36226;53.464;9.852;2023-03-14T04:50:50;6.70;;;2.83;;
50319;SDS011;36226;53.464;9.852;2023-03-14T04:53:15;9.88;;;2.67;;
50319;SDS011;36226;53.464;9.852;2023-03-14T04:55:42;9.70;;;2.80;;
50319;SDS011;36226;53.464;9.852;2023-03-14T04:58:07;4.97;;;2.83;;
50319;SDS011;36226;53.464;9.852;2023-03-14T05:00:33;8.25;;;2.83;;
50319;SDS011;36226;53.464;9.852;2023-03-14T05:02:58;8.02;;;2.80;;
50319;SDS011;36226;53.464;9.852;2023-03-14T05:05:23;5.05;;;2.20;;
50319;SDS011;36226;53.464;9.852;2023-03-14T05:07:49;8.68;;;2.80;;
50319;SDS011;36226;53.464;9.852;2023-03-14T05:10:14;5.50;;;2.30;;
50319;SDS011;36226;53.464;9.852;2023-03-14T05:12:40;6.22;;;2.65;;
50319;SDS011;36226;53.464;9.852;2023-03-14T05:15:05;8.50;;;2.95;;
50319;SDS011;36226;53.464;9.852;2023-03-14T05:17:34;5.10;;;2.63;;
50319;SDS011;36226;53.464;9.852;2023-03-14T05:19:59;6.22;;;3.03;;
50319;SDS011;36226;53.464;9.852;2023-03-14T05:22:25;8.35;;;2.88;;
50319;SDS011;36226;53.464;9.852;2023-03-14T05:24:50;7.85;;;3.10;;
50319;SDS011;36226;53.464;9.852;2023-03-14T05:27:18;8.55;;;2.92;;
50319;SDS011;36226;53.464;9.852;2023-03-14T05:29:43;5.65;;;2.67;;
50319;SDS011;36226;53.464;9.852;2023-03-14T05:32:08;5.40;;;2.88;;
50319;SDS011;36226;53.464;9.852;2023-03-14T05:34:34;11.75;;;2.78;;
50319;SDS011;36226;53.464;9.852;2023-03-14T05:36:59;6.15;;;2.72;;
50319;SDS011;36226;53.464;9.852;2023-03-14T05:39:25;9.27;;;3.17;;
50319;SDS011;36226;53.464;9.852;2023-03-14T05:41:50;8.52;;;3.10;;
50319;SDS011;36226;53.464;9.852;2023-03-14T05:44:16;5.45;;;2.75;;
50319;SDS011;36226;53.464;9.852;2023-03-14T05:46:41;11.98;;;3.20;;
50319;SDS011;36226;53.464;9.852;2023-03-14T05:49:07;6.43;;;2.70;;
50319;SDS011;36226;53.464;9.852;2023-03-14T05:51:32;12.63;;;2.72;;
50319;SDS011;36226;53.464;9.852;2023-03-14T05:54:01;7.22;;;2.88;;
50319;SDS011;36226;53.464;9.852;2023-03-14T05:56:26;10.45;;;2.78;;
50319;SDS011;36226;53.464;9.852;2023-03-14T05:58:51;9.35;;;3.20;;
50319;SDS011;36226;53.464;9.852;2023-03-14T06:01:19;4.13;;;2.42;;
50319;SDS011;36226;53.464;9.852;2023-03-14T06:03:45;5.22;;;2.88;;
50319;SDS011;36226;53.464;9.852;2023-03-14T06:06:10;6.90;;;2.63;;
50319;SDS011;36226;53.464;9.852;2023-03-14T06:08:35;6.13;;;2.50;;
50319;SDS011;36226;53.464;9.852;2023-03-14T06:11:02;6.38;;;3.22;;
50319;SDS011;36226;53.464;9.852;2023-03-14T06:13:30;8.00;;;3.03;;
50319;SDS011;36226;53.464;9.852;2023-03-14T06:15:55;6.72;;;2.63;;
50319;SDS011;36226;53.464;9.852;2023-03-14T06:18:21;5.40;;;2.60;;
50319;SDS011;36226;53.464;9.852;2023-03-14T06:20:46;5.28;;;2.60;;
50319;SDS011;36226;53.464;9.852;2023-03-14T06:23:11;6.30;;;2.65;;
50319;SDS011;36226;53.464;9.852;2023-03-14T06:25:37;6.22;;;2.53;;
50319;SDS011;36226;53.464;9.852;2023-03-14T06:28:02;8.20;;;2.33;;
50319;SDS011;36226;53.464;9.852;2023-03-14T06:30:28;8.43;;;2.30;;
50319;SDS011;36226;53.464;9.852;2023-03-14T06:32:53;6.15;;;2.08;;
50319;SDS011;36226;53.464;9.852;2023-03-14T06:35:18;4.00;;;1.77;;
50319;SDS011;36226;53.464;9.852;2023-03-14T06:37:44;5.53;;;2.00;;
50319;SDS011;36226;53.464;9.852;2023-03-14T06:40:10;6.93;;;1.90;;
50319;SDS011;36226;53.464;9.852;2023-03-14T06:42:38;5.05;;;2.08;;
50319;SDS011;36226;53.464;9.852;2023-03-14T06:45:04;7.82;;;1.92;;
50319;SDS011;36226;53.464;9.852;2023-03-14T06:47:30;4.50;;;1.85;;
50319;SDS011;36226;53.464;9.852;2023-03-14T06:49:55;6.47;;;1.70;;
50319;SDS011;36226;53.464;9.852;2023-03-14T06:52:23;9.02;;;1.70;;
50319;SDS011;36226;53.464;9.852;2023-03-14T06:54:48;5.97;;;1.40;;
50319;SDS011;36226;53.464;9.852;2023-03-14T06:57:14;5.65;;;1.55;;
50319;SDS011;36226;53.464;9.852;2023-03-14T06:59:39;8.02;;;1.60;;
50319;SDS011;36226;53.464;9.852;2023-03-14T07:02:05;4.65;;;1.35;;
50319;SDS011;36226;53.464;9.852;2023-03-14T07:04:32;5.63;;;1.35;;
50319;SDS011;36226;53.464;9.852;2023-03-14T07:06:57;5.32;;;2.15;;
50319;SDS011;36226;53.464;9.852;2023-03-14T07:09:23;6.85;;;1.90;;
50319;SDS011;36226;53.464;9.852;2023-03-14T07:11:48;5.75;;;1.95;;
50319;SDS011;36226;53.464;9.852;2023-03-14T07:14:13;6.05;;;2.08;;
50319;SDS011;36226;53.464;9.852;2023-03-14T07:16:39;5.68;;;1.88;;
50319;SDS011;36226;53.464;9.852;2023-03-14T07:19:04;5.32;;;2.30;;
50319;SDS011;36226;53.464;9.852;2023-03-14T07:21:29;6.13;;;2.20;;
50319;SDS011;36226;53.464;9.852;2023-03-14T07:23:56;4.82;;;1.63;;
50319;SDS011;36226;53.464;9.852;2023-03-14T07:26:22;5.40;;;1.80;;
50319;SDS011;36226;53.464;9.852;2023-03-14T07:28:47;5.78;;;1.60;;
50319;SDS011;36226;53.464;9.852;2023-03-14T07:31:13;3.10;;;1.40;;
50319;SDS011;36226;53.464;9.852;2023-03-14T07:33:38;4.22;;;1.27;;
50319;SDS011;36226;53.464;9.852;2023-03-14T07:36:03;2.80;;;0.90;;
50319;SDS011;36226;53.464;9.852;2023-03-14T07:38:29;3.88;;;1.20;;
50319;SDS011;36226;53.464;9.852;2023-03-14T07:40:58;6.63;;;1.40;;
50319;SDS011;36226;53.464;9.852;2023-03-14T07:43:25;3.20;;;1.02;;
50319;SDS011;36226;53.464;9.852;2023-03-14T07:45:50;4.55;;;0.95;;
50319;SDS011;36226;53.464;9.852;2023-03-14T07:48:15;2.85;;;1.13;;
50319;SDS011;36226;53.464;9.852;2023-03-14T07:50:41;4.47;;;1.10;;
50319;SDS011;36226;53.464;9.852;2023-03-14T07:53:06;5.82;;;0.98;;
50319;SDS011;36226;53.464;9.852;2023-03-14T07:55:31;2.95;;;1.02;;
50319;SDS011;36226;53.464;9.852;2023-03-14T07:57:57;3.17;;;1.15;;
50319;SDS011;36226;53.464;9.852;2023-03-14T08:00:22;2.55;;;1.10;;
50319;SDS011;36226;53.464;9.852;2023-03-14T08:02:47;3.25;;;1.30;;
50319;SDS011;36226;53.464;9.852;2023-03-14T08:05:13;4.38;;;1.30;;
50319;SDS011;36226;53.464;9.852;2023-03-14T08:07:38;3.80;;;1.52;;
50319;SDS011;36226;53.464;9.852;2023-03-14T08:10:04;2.97;;;1.40;;
50319;SDS011;36226;53.464;9.852;2023-03-14T08:12:30;6.07;;;1.70;;
50319;SDS011;36226;53.464;9.852;2023-03-14T08:14:55;5.47;;;2.13;;
50319;SDS011;36226;53.464;9.852;2023-03-14T08:17:20;5.22;;;1.95;;
50319;SDS011;36226;53.464;9.852;2023-03-14T08:19:46;6.78;;;1.88;;
50319;SDS011;36226;53.464;9.852;2023-03-14T08:22:11;5.22;;;1.88;;
50319;SDS011;36226;53.464;9.852;2023-03-14T08:24:36;6.50;;;2.33;;
50319;SDS011;36226;53.464;9.852;2023-03-14T08:27:02;6.57;;;2.35;;
50319;SDS011;36226;53.464;9.852;2023-03-14T08:29:27;7.55;;;2.05;;
50319;SDS011;36226;53.464;9.852;2023-03-14T08:31:52;3.55;;;2.25;;
50319;SDS011;36226;53.464;9.852;2023-03-14T08:34:20;6.78;;;2.50;;
50319;SDS011;36226;53.464;9.852;2023-03-14T08:36:45;6.00;;;2.55;;
50319;SDS011;36226;53.464;9.852;2023-03-14T08:39:11;5.95;;;2.80;;
50319;SDS011;36226;53.464;9.852;2023-03-14T08:41:36;4.30;;;2.40;;
50319;SDS011;36226;53.464;9.852;2023-03-14T08:44:05;4.97;;;2.40;;
50319;SDS011;36226;53.464;9.852;2023-03-14T08:46:31;5.65;;;2.50;;
50319;SDS011;36226;53.464;9.852;2023-03-14T08:48:57;7.80;;;2.65;;
50319;SDS011;36226;53.464;9.852;2023-03-14T08:51:22;7.38;;;2.78;;
50319;SDS011;36226;53.464;9.852;2023-03-14T08:53:48;8.30;;;3.20;;
50319;SDS011;36226;53.464;9.852;2023-03-14T08:56:13;6.60;;;3.58;;
50319;SDS011;36226;53.464;9.852;2023-03-14T08:58:39;7.90;;;2.90;;
50319;SDS011;36226;53.464;9.852;2023-03-14T09:01:05;11.38;;;3.15;;
50319;SDS011;36226;53.464;9.852;2023-03-14T09:03:30;12.32;;;3.25;;
50319;SDS011;36226;53.464;9.852;2023-03-14T09:06:00;10.75;;;3.30;;
50319;SDS011;36226;53.464;9.852;2023-03-14T09:08:27;11.00;;;3.83;;
50319;SDS011;36226;53.464;9.852;2023-03-14T09:10:53;8.18;;;3.30;;
50319;SDS011;36226;53.464;9.852;2023-03-14T09:13:18;8.50;;;3.75;;
50319;SDS011;36226;53.464;9.852;2023-03-14T09:15:43;9.48;;;4.35;;
50319;SDS011;36226;53.464;9.852;2023-03-14T09:18:09;7.32;;;3.92;;
50319;SDS011;36226;53.464;9.852;2023-03-14T09:20:34;10.82;;;4.35;;
50319;SDS011;36226;53.464;9.852;2023-03-14T09:22:59;10.82;;;4.07;;
50319;SDS011;36226;53.464;9.852;2023-03-14T09:25:25;10.57;;;4.38;;
50319;SDS011;36226;53.464;9.852;2023-03-14T09:27:50;9.00;;;3.88;;
50319;SDS011;36226;53.464;9.852;2023-03-14T09:30:15;9.07;;;3.83;;
50319;SDS011;36226;53.464;9.852;2023-03-14T09:32:42;9.60;;;4.22;;
50319;SDS011;36226;53.464;9.852;2023-03-14T09:35:07;9.07;;;4.45;;
50319;SDS011;36226;53.464;9.852;2023-03-14T09:37:33;12.25;;;4.32;;
50319;SDS011;36226;53.464;9.852;2023-03-14T09:39:58;10.05;;;4.53;;
50319;SDS011;36226;53.464;9.852;2023-03-14T09:42:25;11.48;;;5.13;;
50319;SDS011;36226;53.464;9.852;2023-03-14T09:45:05;8.65;;;4.45;;
50319;SDS011;36226;53.464;9.852;2023-03-14T09:47:32;13.75;;;4.60;;
50319;SDS011;36226;53.464;9.852;2023-03-14T09:49:59;10.40;;;4.43;;
50319;SDS011;36226;53.464;9.852;2023-03-14T09:54:52;4.95;;;1.48;;
50319;SDS011;36226;53.464;9.852;2023-03-14T09:57:20;3.90;;;1.10;;
50319;SDS011;36226;53.464;9.852;2023-03-14T09:59:48;2.60;;;0.57;;
50319;SDS011;36226;53.464;9.852;2023-03-14T10:02:17;2.35;;;0.70;;
50319;SDS011;36226;53.464;9.852;2023-03-14T10:04:45;1.95;;;0.90;;
50319;SDS011;36226;53.464;9.852;2023-03-14T10:07:13;2.47;;;1.73;;
50319;SDS011;36226;53.464;9.852;2023-03-14T10:09:42;3.08;;;1.52;;
50319;SDS011;36226;53.464;9.852;2023-03-14T10:12:08;2.40;;;1.38;;
50319;SDS011;36226;53.464;9.852;2023-03-14T10:14:36;3.30;;;1.08;;
50319;SDS011;36226;53.464;9.852;2023-03-14T10:17:10;2.22;;;0.82;;
50319;SDS011;36226;53.464;9.852;2023-03-14T10:19:37;6.75;;;0.90;;
50319;SDS011;36226;53.464;9.852;2023-03-14T10:22:04;2.25;;;0.52;;
50319;SDS011;36226;53.464;9.852;2023-03-14T10:24:31;2.40;;;0.60;;
50319;SDS011;36226;53.464;9.852;2023-03-14T10:27:00;2.72;;;0.85;;
50319;SDS011;36226;53.464;9.852;2023-03-14T10:29:28;2.92;;;0.70;;
50319;SDS011;36226;53.464;9.852;2023-03-14T10:31:56;1.35;;;0.50;;
50319;SDS011;36226;53.464;9.852;2023-03-14T10:34:30;2.03;;;0.50;;
50319;SDS011;36226;53.464;9.852;2023-03-14T10:39:49;3.28;;;0.57;;
50319;SDS011;36226;53.464;9.852;2023-03-14T10:42:19;2.33;;;0.57;;
50319;SDS011;36226;53.464;9.852;2023-03-14T10:44:48;0.73;;;0.32;;
50319;SDS011;36226;53.464;9.852;2023-03-14T10:47:19;1.77;;;0.43;;
50319;SDS011;36226;53.464;9.852;2023-03-14T10:49:46;1.02;;;0.57;;
50319;SDS011;36226;53.464;9.852;2023-03-14T10:54:37;1.05;;;0.50;;
50319;SDS011;36226;53.464;9.852;2023-03-14T10:57:03;0.43;;;0.32;;
50319;SDS011;36226;53.464;9.852;2023-03-14T10:59:37;1.13;;;0.35;;
50319;SDS011;36226;53.464;9.852;2023-03-14T11:02:15;2.55;;;0.30;;
50319;SDS011;36226;53.464;9.852;2023-03-14T11:07:28;1.08;;;0.30;;
50319;SDS011;36226;53.464;9.852;2023-03-14T11:10:01;1.23;;;0.20;;
50319;SDS011;36226;53.464;9.852;2023-03-14T11:15:20;0.55;;;0.20;;
50319;SDS011;36226;53.464;9.852;2023-03-14T11:20:17;0.93;;;0.20;;
50319;SDS011;36226;53.464;9.852;2023-03-14T11:23:08;3.63;;;0.43;;
50319;SDS011;36226;53.464;9.852;2023-03-14T11:25:43;4.35;;;0.40;;
50319;SDS011;36226;53.464;9.852;2023-03-14T11:28:23;0.90;;;0.25;;
50319;SDS011;36226;53.464;9.852;2023-03-14T11:31:22;2.22;;;0.68;;
50319;SDS011;36226;53.464;9.852;2023-03-14T11:34:01;2.83;;;0.30;;
50319;SDS011;36226;53.464;9.852;2023-03-14T11:36:38;2.33;;;0.40;;
50319;SDS011;36226;53.464;9.852;2023-03-14T11:39:14;1.25;;;0.30;;
50319;SDS011;36226;53.464;9.852;2023-03-14T11:41:43;3.50;;;0.32;;
50319;SDS011;36226;53.464;9.852;2023-03-14T11:47:15;3.75;;;0.70;;
50319;SDS011;36226;53.464;9.852;2023-03-14T11:49:52;1.27;;;0.30;;
50319;SDS011;36226;53.464;9.852;2023-03-14T11:54:56;4.10;;;0.90;;
50319;SDS011;36226;53.464;9.852;2023-03-14T11:57:23;3.88;;;0.68;;
50319;SDS011;36226;53.464;9.852;2023-03-14T11:59:52;5.28;;;0.77;;
50319;SDS011;36226;53.464;9.852;2023-03-14T12:02:26;4.00;;;0.55;;
50319;SDS011;36226;53.464;9.852;2023-03-14T12:10:37;5.82;;;0.63;;
50319;SDS011;36226;53.464;9.852;2023-03-14T12:13:04;4.88;;;0.50;;
50319;SDS011;36226;53.464;9.852;2023-03-14T12:15:31;6.60;;;0.80;;
50319;SDS011;36226;53.464;9.852;2023-03-14T12:18:03;7.18;;;0.88;;
50319;SDS011;36226;53.464;9.852;2023-03-14T12:20:28;5.43;;;0.90;;
50319;SDS011;36226;53.464;9.852;2023-03-14T12:22:55;3.70;;;0.68;;
50319;SDS011;36226;53.464;9.852;2023-03-14T12:25:26;13.13;;;2.28;;
50319;SDS011;36226;53.464;9.852;2023-03-14T12:30:29;14.48;;;1.33;;
50319;SDS011;36226;53.464;9.852;2023-03-14T12:38:21;8.15;;;1.00;;
50319;SDS011;36226;53.464;9.852;2023-03-14T12:41:13;9.48;;;1.25;;
50319;SDS011;36226;53.464;9.852;2023-03-14T12:43:45;5.40;;;1.25;;
50319;SDS011;36226;53.464;9.852;2023-03-14T12:48:42;9.05;;;1.50;;
50319;SDS011;36226;53.464;9.852;2023-03-14T12:51:13;10.20;;;1.10;;
50319;SDS011;36226;53.464;9.852;2023-03-14T12:53:50;7.82;;;1.23;;
50319;SDS011;36226;53.464;9.852;2023-03-14T12:56:26;7.53;;;1.15;;
50319;SDS011;36226;53.464;9.852;2023-03-14T13:01:28;9.63;;;1.20;;
50319;SDS011;36226;53.464;9.852;2023-03-14T13:03:55;7.88;;;1.10;;
50319;SDS011;36226;53.464;9.852;2023-03-14T13:09:34;11.93;;;1.33;;
50319;SDS011;36226;53.464;9.852;2023-03-14T13:12:01;12.10;;;1.38;;
50319;SDS011;36226;53.464;9.852;2023-03-14T13:14:28;9.15;;;1.65;;
50319;SDS011;36226;53.464;9.852;2023-03-14T13:16:59;14.63;;;1.42;;
50319;SDS011;36226;53.464;9.852;2023-03-14T13:19:28;10.85;;;1.35;;
50319;SDS011;36226;53.464;9.852;2023-03-14T13:21:56;9.18;;;1.35;;
50319;SDS011;36226;53.464;9.852;2023-03-14T13:24:27;9.73;;;1.50;;
50319;SDS011;36226;53.464;9.852;2023-03-14T13:26:53;8.00;;;1.35;;
50319;SDS011;36226;53.464;9.852;2023-03-14T13:31:51;6.13;;;1.10;;
50319;SDS011;36226;53.464;9.852;2023-03-14T13:34:17;7.90;;;1.13;;
50319;SDS011;36226;53.464;9.852;2023-03-14T13:36:43;6.78;;;1.30;;
50319;SDS011;36226;53.464;9.852;2023-03-14T13:39:18;6.10;;;1.02;;
50319;SDS011;36226;53.464;9.852;2023-03-14T13:41:46;9.20;;;1.23;;
50319;SDS011;36226;53.464;9.852;2023-03-14T13:44:15;9.75;;;1.63;;
50319;SDS011;36226;53.464;9.852;2023-03-14T13:46:51;7.05;;;0.93;;
50319;SDS011;36226;53.464;9.852;2023-03-14T13:49:23;7.00;;;1.27;;
50319;SDS011;36226;53.464;9.852;2023-03-14T13:51:53;9.52;;;1.30;;
50319;SDS011;36226;53.464;9.852;2023-03-14T13:54:20;5.13;;;0.73;;
50319;SDS011;36226;53.464;9.852;2023-03-14T13:56:58;6.95;;;1.38;;
50319;SDS011;36226;53.464;9.852;2023-03-14T13:59:28;8.60;;;1.15;;
50319;SDS011;36226;53.464;9.852;2023-03-14T14:01:59;5.00;;;0.82;;
50319;SDS011;36226;53.464;9.852;2023-03-14T14:04:26;9.90;;;1.35;;
50319;SDS011;36226;53.464;9.852;2023-03-14T14:06:55;8.25;;;1.20;;
50319;SDS011;36226;53.464;9.852;2023-03-14T14:09:24;11.57;;;1.30;;
50319;SDS011;36226;53.464;9.852;2023-03-14T14:14:27;6.55;;;1.60;;
50319;SDS011;36226;53.464;9.852;2023-03-14T14:16:56;4.78;;;1.13;;
50319;SDS011;36226;53.464;9.852;2023-03-14T14:19:23;4.68;;;0.80;;
50319;SDS011;36226;53.464;9.852;2023-03-14T14:21:50;8.88;;;1.25;;
50319;SDS011;36226;53.464;9.852;2023-03-14T14:24:16;5.80;;;0.90;;
50319;SDS011;36226;53.464;9.852;2023-03-14T14:26:51;7.53;;;1.23;;
50319;SDS011;36226;53.464;9.852;2023-03-14T14:29:30;3.92;;;0.80;;
50319;SDS011;36226;53.464;9.852;2023-03-14T14:32:15;7.13;;;1.15;;
50319;SDS011;36226;53.464;9.852;2023-03-14T14:39:55;8.57;;;1.00;;
50319;SDS011;36226;53.464;9.852;2023-03-14T14:42:29;6.30;;;1.10;;
50319;SDS011;36226;53.464;9.852;2023-03-14T14:44:56;4.57;;;0.88;;
50319;SDS011;36226;53.464;9.852;2023-03-14T14:47:23;8.07;;;0.93;;
50319;SDS011;36226;53.464;9.852;2023-03-14T14:49:50;5.47;;;0.80;;
50319;SDS011;36226;53.464;9.852;2023-03-14T14:52:21;8.05;;;1.08;;
50319;SDS011;36226;53.464;9.852;2023-03-14T14:54:59;7.30;;;1.00;;
50319;SDS011;36226;53.464;9.852;2023-03-14T14:57:27;4.38;;;0.50;;
50319;SDS011;36226;53.464;9.852;2023-03-14T14:59:57;6.57;;;0.95;;
50319;SDS011;36226;53.464;9.852;2023-03-14T15:02:32;6.97;;;0.77;;
50319;SDS011;36226;53.464;9.852;2023-03-14T15:05:02;4.60;;;0.98;;
50319;SDS011;36226;53.464;9.852;2023-03-14T15:07:28;4.95;;;0.80;;
50319;SDS011;36226;53.464;9.852;2023-03-14T15:09:53;8.45;;;1.17;;
50319;SDS011;36226;53.464;9.852;2023-03-14T15:12:19;8.57;;;1.15;;
50319;SDS011;36226;53.464;9.852;2023-03-14T15:14:45;4.47;;;0.85;;
50319;SDS011;36226;53.464;9.852;2023-03-14T15:17:10;10.82;;;1.08;;
50319;SDS011;36226;53.464;9.852;2023-03-14T15:19:36;6.65;;;1.30;;
50319;SDS011;36226;53.464;9.852;2023-03-14T15:22:02;6.18;;;1.27;;
50319;SDS011;36226;53.464;9.852;2023-03-14T15:24:27;7.90;;;1.48;;
50319;SDS011;36226;53.464;9.852;2023-03-14T15:26:52;6.13;;;1.40;;
50319;SDS011;36226;53.464;9.852;2023-03-14T15:29:18;10.13;;;1.50;;
50319;SDS011;36226;53.464;9.852;2023-03-14T15:31:43;7.18;;;0.85;;
50319;SDS011;36226;53.464;9.852;2023-03-14T15:34:09;12.05;;;1.10;;
50319;SDS011;36226;53.464;9.852;2023-03-14T15:36:35;10.77;;;2.05;;
50319;SDS011;36226;53.464;9.852;2023-03-14T15:39:01;9.25;;;1.17;;
50319;SDS011;36226;53.464;9.852;2023-03-14T15:41:28;5.90;;;1.25;;
50319;SDS011;36226;53.464;9.852;2023-03-14T15:43:53;6.53;;;0.80;;
50319;SDS011;36226;53.464;9.852;2023-03-14T15:46:19;10.55;;;1.35;;
50319;SDS011;36226;53.464;9.852;2023-03-14T15:48:46;15.00;;;1.10;;
50319;SDS011;36226;53.464;9.852;2023-03-14T15:51:13;8.40;;;1.13;;